createdAt,value
2018-08-03T00:00:19.607Z,6.00
2018-08-03T00:01:20.325Z,4.00
2018-08-03T00:02:21.046Z,3.00
2018-08-03T00:03:21.765Z,5.00
2018-08-03T00:04:22.487Z,4.00
2018-08-03T00:05:23.208Z,4.00
2018-08-03T00:06:23.942Z,5.00
2018-08-03T00:07:24.679Z,5.00
2018-08-03T00:08:25.400Z,5.00
2018-08-03T00:09:26.141Z,6.00
2018-08-03T00:10:26.858Z,5.00
2018-08-03T00:11:27.580Z,5.00
2018-08-03T00:12:28.314Z,5.00
2018-08-03T00:13:29.035Z,6.00
2018-08-03T00:14:29.775Z,4.00
2018-08-03T00:15:30.505Z,5.00
2018-08-03T00:16:31.226Z,6.00
2018-08-03T00:17:31.959Z,5.00
2018-08-03T00:18:32.680Z,5.00
2018-08-03T00:19:33.418Z,5.00
2018-08-03T00:20:34.137Z,5.00
2018-08-03T00:21:34.858Z,4.00
2018-08-03T00:22:35.581Z,5.00
2018-08-03T00:23:36.315Z,5.00
2018-08-03T00:24:37.038Z,6.00
2018-08-03T00:25:37.773Z,5.00
2018-08-03T00:26:38.481Z,5.00
2018-08-03T00:27:39.201Z,6.00
2018-08-03T00:28:39.922Z,5.00
2018-08-03T00:29:40.643Z,5.00
2018-08-03T00:30:41.364Z,5.00
2018-08-03T00:31:42.086Z,5.00
2018-08-03T00:32:42.807Z,5.00
2018-08-03T00:33:43.527Z,6.00
2018-08-03T00:34:44.250Z,6.00
2018-08-03T00:35:44.972Z,6.00
2018-08-03T00:36:45.708Z,8.00
2018-08-03T00:37:46.429Z,5.00
2018-08-03T00:38:47.156Z,6.00
2018-08-03T00:39:47.886Z,5.00
2018-08-03T00:40:48.621Z,5.00
2018-08-03T00:41:49.339Z,6.00
2018-08-03T00:42:50.058Z,5.00
2018-08-03T00:43:50.780Z,5.00
2018-08-03T00:44:51.505Z,6.00
2018-08-03T00:45:52.237Z,5.00
2018-08-03T00:46:52.957Z,5.00
2018-08-03T00:47:53.679Z,6.00
2018-08-03T00:48:54.412Z,5.00
2018-08-03T00:49:55.130Z,4.00
2018-08-03T00:50:55.850Z,5.00
2018-08-03T00:51:56.569Z,5.00
2018-08-03T00:52:57.288Z,5.00
2018-08-03T00:53:58.007Z,6.00
2018-08-03T00:54:58.729Z,5.00
2018-08-03T00:55:59.451Z,8.00
2018-08-03T00:57:00.170Z,7.00
2018-08-03T00:58:00.891Z,6.00
2018-08-03T00:59:01.612Z,7.00
2018-08-03T01:00:02.347Z,6.00
2018-08-03T01:01:03.066Z,5.00
2018-08-03T01:02:03.802Z,5.00
2018-08-03T01:03:04.526Z,6.00
2018-08-03T01:04:05.242Z,5.00
2018-08-03T01:05:05.963Z,6.00
2018-08-03T01:06:06.682Z,5.00
2018-08-03T01:07:07.399Z,5.00
2018-08-03T01:08:08.122Z,9.00
2018-08-03T01:09:08.843Z,6.00
2018-08-03T01:10:09.562Z,6.00
2018-08-03T01:11:10.284Z,7.00
2018-08-03T01:12:11.015Z,8.00
2018-08-03T01:13:11.743Z,9.00
2018-08-03T01:14:12.480Z,7.00
2018-08-03T01:15:13.200Z,10.00
2018-08-03T01:16:13.924Z,6.00
2018-08-03T01:17:14.643Z,5.00
2018-08-03T01:18:15.360Z,6.00
2018-08-03T01:19:16.081Z,6.00
2018-08-03T01:20:16.800Z,7.00
2018-08-03T01:21:17.519Z,5.00
2018-08-03T01:22:18.250Z,8.00
2018-08-03T01:23:18.970Z,6.00
2018-08-03T01:24:19.688Z,5.00
2018-08-03T01:25:20.408Z,7.00
2018-08-03T01:26:21.142Z,6.00
2018-08-03T01:27:21.857Z,6.00
2018-08-03T01:28:22.574Z,6.00
2018-08-03T01:29:23.315Z,6.00
2018-08-03T01:30:24.042Z,5.00
2018-08-03T01:31:24.761Z,6.00
2018-08-03T01:32:25.487Z,5.00
2018-08-03T01:33:26.207Z,6.00
2018-08-03T01:34:26.926Z,7.00
2018-08-03T01:35:27.642Z,6.00
2018-08-03T01:36:28.358Z,6.00
2018-08-03T01:37:29.074Z,5.00
2018-08-03T01:38:29.793Z,7.00
2018-08-03T01:39:30.512Z,8.00
2018-08-03T01:40:31.230Z,6.00
2018-08-03T01:41:31.949Z,6.00
2018-08-03T01:42:32.679Z,5.00
2018-08-03T01:43:33.394Z,5.00
2018-08-03T01:44:34.114Z,6.00
2018-08-03T01:45:34.828Z,6.00
2018-08-03T01:46:35.544Z,6.00
2018-08-03T01:47:36.258Z,6.00
2018-08-03T01:48:36.991Z,6.00
2018-08-03T01:49:37.707Z,7.00
2018-08-03T01:50:38.423Z,6.00
2018-08-03T01:51:39.142Z,6.00
2018-08-03T01:52:39.875Z,8.00
2018-08-03T01:53:40.592Z,6.00
2018-08-03T01:54:41.322Z,7.00
2018-08-03T01:55:42.043Z,6.00
2018-08-03T01:56:42.777Z,6.00
2018-08-03T01:57:43.494Z,7.00
2018-08-03T01:58:44.225Z,7.00
2018-08-03T01:59:44.947Z,6.00
2018-08-03T02:00:45.663Z,6.00
2018-08-03T02:01:46.390Z,7.00
2018-08-03T02:02:47.106Z,7.00
2018-08-03T02:03:47.836Z,6.00
2018-08-03T02:04:48.566Z,6.00
2018-08-03T02:05:49.284Z,7.00
2018-08-03T02:06:49.998Z,6.00
2018-08-03T02:07:50.714Z,6.00
2018-08-03T02:08:51.431Z,7.00
2018-08-03T02:09:52.156Z,5.00
2018-08-03T02:10:52.874Z,8.00
2018-08-03T02:11:53.593Z,6.00
2018-08-03T02:12:54.310Z,6.00
2018-08-03T02:13:55.026Z,6.00
2018-08-03T02:14:55.744Z,7.00
2018-08-03T02:15:56.473Z,6.00
2018-08-03T02:16:57.193Z,6.00
2018-08-03T02:17:57.913Z,7.00
2018-08-03T02:18:58.632Z,8.00
2018-08-03T02:19:59.348Z,7.00
2018-08-03T02:21:00.067Z,6.00
2018-08-03T02:22:00.781Z,6.00
2018-08-03T02:23:01.497Z,6.00
2018-08-03T02:24:02.211Z,6.00
2018-08-03T02:25:02.927Z,6.00
2018-08-03T02:26:03.643Z,6.00
2018-08-03T02:27:04.359Z,7.00
2018-08-03T02:28:05.076Z,7.00
2018-08-03T02:29:05.789Z,7.00
2018-08-03T02:30:06.505Z,7.00
2018-08-03T02:31:07.230Z,6.00
2018-08-03T02:32:07.960Z,7.00
2018-08-03T02:33:08.688Z,6.00
2018-08-03T02:34:09.415Z,5.00
2018-08-03T02:35:10.130Z,7.00
2018-08-03T02:36:10.848Z,7.00
2018-08-03T02:37:11.575Z,8.00
2018-08-03T02:38:12.306Z,7.00
2018-08-03T02:39:13.023Z,7.00
2018-08-03T02:40:13.739Z,7.00
2018-08-03T02:41:14.472Z,8.00
2018-08-03T02:42:15.187Z,8.00
2018-08-03T02:43:15.903Z,7.00
2018-08-03T02:44:16.618Z,8.00
2018-08-03T02:45:17.335Z,7.00
2018-08-03T02:46:18.049Z,6.00
2018-08-03T02:47:18.765Z,6.00
2018-08-03T02:48:19.481Z,6.00
2018-08-03T02:49:20.196Z,7.00
2018-08-03T02:50:20.927Z,6.00
2018-08-03T02:51:21.642Z,6.00
2018-08-03T02:52:22.359Z,7.00
2018-08-03T02:53:23.088Z,6.00
2018-08-03T02:54:23.804Z,9.00
2018-08-03T02:55:24.516Z,8.00
2018-08-03T02:56:25.232Z,8.00
2018-08-03T02:57:25.963Z,7.00
2018-08-03T02:58:26.680Z,7.00
2018-08-03T02:59:27.410Z,8.00
2018-08-03T03:00:28.127Z,7.00
2018-08-03T03:01:28.843Z,7.00
2018-08-03T03:02:29.557Z,7.00
2018-08-03T03:03:30.273Z,9.00
2018-08-03T03:04:30.989Z,8.00
2018-08-03T03:05:31.704Z,8.00
2018-08-03T03:06:32.431Z,7.00
2018-08-03T03:07:33.146Z,8.00
2018-08-03T03:08:33.874Z,8.00
2018-08-03T03:09:34.603Z,9.00
2018-08-03T03:10:35.335Z,9.00
2018-08-03T03:11:36.049Z,8.00
2018-08-03T03:12:36.777Z,7.00
2018-08-03T03:13:37.514Z,6.00
2018-08-03T03:14:38.224Z,8.00
2018-08-03T03:15:38.952Z,8.00
2018-08-03T03:16:39.669Z,7.00
2018-08-03T03:17:40.390Z,6.00
2018-08-03T03:18:41.102Z,9.00
2018-08-03T03:19:41.843Z,7.00
2018-08-03T03:20:42.532Z,7.00
2018-08-03T03:21:43.248Z,8.00
2018-08-03T03:22:43.964Z,8.00
2018-08-03T03:23:44.686Z,10.00
2018-08-03T03:24:45.400Z,10.00
2018-08-03T03:25:46.114Z,6.00
2018-08-03T03:26:46.833Z,8.00
2018-08-03T03:27:47.552Z,8.00
2018-08-03T03:28:48.283Z,8.00
2018-08-03T03:29:49.000Z,7.00
2018-08-03T03:30:49.744Z,6.00
2018-08-03T03:31:50.443Z,7.00
2018-08-03T03:32:51.158Z,8.00
2018-08-03T03:33:51.877Z,6.00
2018-08-03T03:34:52.595Z,8.00
2018-08-03T03:35:53.321Z,8.00
2018-08-03T03:36:54.039Z,7.00
2018-08-03T03:37:54.756Z,9.00
2018-08-03T03:38:55.472Z,7.00
2018-08-03T03:39:56.201Z,8.00
2018-08-03T03:40:56.918Z,9.00
2018-08-03T03:41:57.637Z,8.00
2018-08-03T03:42:58.352Z,8.00
2018-08-03T03:43:59.068Z,8.00
2018-08-03T03:44:59.783Z,7.00
2018-08-03T03:46:00.500Z,9.00
2018-08-03T03:47:01.230Z,8.00
2018-08-03T03:48:01.961Z,9.00
2018-08-03T03:49:02.677Z,10.00
2018-08-03T03:50:03.399Z,9.00
2018-08-03T03:51:04.158Z,8.00
2018-08-03T03:52:04.846Z,8.00
2018-08-03T03:53:05.565Z,8.00
2018-08-03T03:54:06.282Z,7.00
2018-08-03T03:55:07.002Z,8.00
2018-08-03T03:56:07.721Z,8.00
2018-08-03T03:57:08.452Z,8.00
2018-08-03T03:58:09.169Z,8.00
2018-08-03T03:59:09.917Z,7.00
2018-08-03T04:00:10.606Z,8.00
2018-08-03T04:01:11.324Z,10.00
2018-08-03T04:02:12.049Z,8.00
2018-08-03T04:03:12.776Z,9.00
2018-08-03T04:04:13.493Z,9.00
2018-08-03T04:05:14.224Z,8.00
2018-08-03T04:06:14.957Z,8.00
2018-08-03T04:07:15.688Z,10.00
2018-08-03T04:08:16.407Z,9.00
2018-08-03T04:09:17.127Z,12.00
2018-08-03T04:10:17.860Z,8.00
2018-08-03T04:11:18.581Z,10.00
2018-08-03T04:12:19.313Z,10.00
2018-08-03T04:13:20.036Z,10.00
2018-08-03T04:14:20.759Z,10.00
2018-08-03T04:15:21.477Z,8.00
2018-08-03T04:16:22.197Z,9.00
2018-08-03T04:17:22.915Z,10.00
2018-08-03T04:18:23.633Z,9.00
2018-08-03T04:19:24.365Z,8.00
2018-08-03T04:20:25.085Z,10.00
2018-08-03T04:21:25.804Z,7.00
2018-08-03T04:22:26.522Z,9.00
2018-08-03T04:23:27.244Z,9.00
2018-08-03T04:24:27.962Z,9.00
2018-08-03T04:25:28.688Z,10.00
2018-08-03T04:26:29.405Z,10.00
2018-08-03T04:27:30.138Z,10.00
2018-08-03T04:28:30.860Z,12.00
2018-08-03T04:29:31.580Z,11.00
2018-08-03T04:30:32.316Z,10.00
2018-08-03T04:31:33.049Z,9.00
2018-08-03T04:32:33.770Z,9.00
2018-08-03T04:33:34.493Z,10.00
2018-08-03T04:34:35.213Z,9.00
2018-08-03T04:35:35.935Z,10.00
2018-08-03T04:36:36.668Z,9.00
2018-08-03T04:37:37.400Z,9.00
2018-08-03T04:38:38.118Z,8.00
2018-08-03T04:39:38.837Z,8.00
2018-08-03T04:40:39.559Z,9.00
2018-08-03T04:41:40.282Z,9.00
2018-08-03T04:42:41.016Z,9.00
2018-08-03T04:43:41.750Z,9.00
2018-08-03T04:44:42.472Z,8.00
2018-08-03T04:45:43.206Z,10.00
2018-08-03T04:46:43.943Z,11.00
2018-08-03T04:47:44.677Z,10.00
2018-08-03T04:48:45.451Z,9.00
2018-08-03T04:49:46.116Z,7.00
2018-08-03T04:50:46.838Z,12.00
2018-08-03T04:51:47.561Z,10.00
2018-08-03T04:52:48.281Z,10.00
2018-08-03T04:53:49.003Z,11.00
2018-08-03T04:54:49.822Z,10.00
2018-08-03T04:55:50.463Z,10.00
2018-08-03T04:56:51.182Z,9.00
2018-08-03T04:57:51.913Z,13.00
2018-08-03T04:58:52.637Z,11.00
2018-08-03T04:59:53.357Z,9.00
2018-08-03T05:00:54.079Z,9.00
2018-08-03T05:01:54.811Z,9.00
2018-08-03T05:02:55.532Z,9.00
2018-08-03T05:03:56.252Z,8.00
2018-08-03T05:04:56.975Z,9.00
2018-08-03T05:05:57.711Z,10.00
2018-08-03T05:06:58.428Z,8.00
2018-08-03T05:07:59.152Z,10.00
2018-08-03T05:08:59.884Z,11.00
2018-08-03T05:10:00.618Z,10.00
2018-08-03T05:11:01.341Z,8.00
2018-08-03T05:12:02.075Z,10.00
2018-08-03T05:13:02.801Z,10.00
2018-08-03T05:14:03.520Z,11.00
2018-08-03T05:15:48.885Z,10.00
2018-08-03T05:16:49.608Z,10.00
2018-08-03T05:17:50.328Z,11.00
2018-08-03T05:18:51.050Z,8.00
2018-08-03T05:19:51.771Z,12.00
2018-08-03T05:20:52.493Z,11.00
2018-08-03T05:21:53.215Z,11.00
2018-08-03T05:22:53.937Z,10.00
2018-08-03T05:23:54.660Z,10.00
2018-08-03T05:24:55.382Z,11.00
2018-08-03T05:25:56.101Z,9.00
2018-08-03T05:26:56.823Z,9.00
2018-08-03T05:27:57.545Z,9.00
2018-08-03T05:28:58.313Z,11.00
2018-08-03T05:29:59.091Z,10.00
2018-08-03T05:30:59.812Z,10.00
2018-08-03T05:32:00.532Z,9.00
2018-08-03T05:33:01.251Z,9.00
2018-08-03T05:34:01.987Z,8.00
2018-08-03T05:35:02.706Z,9.00
2018-08-03T05:36:03.501Z,11.00
2018-08-03T05:37:04.151Z,11.00
2018-08-03T05:38:04.873Z,11.00
2018-08-03T05:39:05.594Z,9.00
2018-08-03T05:40:06.317Z,11.00
2018-08-03T05:41:07.037Z,11.00
2018-08-03T05:42:07.759Z,10.00
2018-08-03T05:43:08.481Z,8.00
2018-08-03T05:44:09.200Z,10.00
2018-08-03T05:45:09.922Z,9.00
2018-08-03T05:46:10.658Z,11.00
2018-08-03T05:47:11.387Z,11.00
2018-08-03T05:48:12.121Z,9.00
2018-08-03T05:49:12.845Z,8.00
2018-08-03T05:50:13.635Z,11.00
2018-08-03T05:51:14.295Z,9.00
2018-08-03T05:52:15.020Z,8.00
2018-08-03T05:53:15.740Z,11.00
2018-08-03T05:54:16.466Z,10.00
2018-08-03T05:55:17.189Z,10.00
2018-08-03T05:56:17.916Z,10.00
2018-08-03T05:57:18.643Z,10.00
2018-08-03T05:58:19.369Z,10.00
2018-08-03T05:59:20.099Z,13.00
2018-08-03T06:00:20.824Z,11.00
2018-08-03T06:01:21.551Z,11.00
2018-08-03T06:02:22.280Z,11.00
2018-08-03T06:03:23.002Z,10.00
2018-08-03T06:04:23.731Z,12.00
2018-08-03T06:05:24.457Z,11.00
2018-08-03T06:06:25.186Z,10.00
2018-08-03T06:07:25.911Z,10.00
2018-08-03T06:08:26.653Z,9.00
2018-08-03T06:09:27.410Z,10.00
2018-08-03T06:10:28.112Z,11.00
2018-08-03T06:11:28.839Z,10.00
2018-08-03T06:12:29.590Z,10.00
2018-08-03T06:13:30.318Z,10.00
2018-08-03T06:14:31.046Z,12.00
2018-08-03T06:15:31.773Z,12.00
2018-08-03T06:16:32.509Z,10.00
2018-08-03T06:17:33.247Z,9.00
2018-08-03T06:18:33.963Z,10.00
2018-08-03T06:19:34.702Z,9.00
2018-08-03T06:20:35.462Z,11.00
2018-08-03T06:21:36.171Z,9.00
2018-08-03T06:22:36.897Z,10.00
2018-08-03T06:23:37.624Z,9.00
2018-08-03T06:24:38.399Z,9.00
2018-08-03T06:25:39.128Z,11.00
2018-08-03T06:26:39.856Z,10.00
2018-08-03T06:27:40.584Z,10.00
2018-08-03T06:28:41.337Z,10.00
2018-08-03T06:29:42.117Z,11.00
2018-08-03T06:30:42.792Z,10.00
2018-08-03T06:31:43.518Z,9.00
2018-08-03T06:32:44.241Z,10.00
2018-08-03T06:33:44.970Z,9.00
2018-08-03T06:34:45.697Z,11.00
2018-08-03T06:35:46.426Z,9.00
2018-08-03T06:36:47.153Z,11.00
2018-08-03T06:37:47.883Z,11.00
2018-08-03T06:38:48.608Z,9.00
2018-08-03T06:39:49.394Z,9.00
2018-08-03T06:40:50.126Z,10.00
2018-08-03T06:41:50.851Z,12.00
2018-08-03T06:42:51.582Z,11.00
2018-08-03T06:43:52.324Z,10.00
2018-08-03T06:44:53.054Z,9.00
2018-08-03T06:45:53.784Z,10.00
2018-08-03T06:46:54.507Z,10.00
2018-08-03T06:47:55.234Z,10.00
2018-08-03T06:48:55.963Z,11.00
2018-08-03T06:49:56.692Z,11.00
2018-08-03T06:50:57.420Z,10.00
2018-08-03T06:51:58.161Z,13.00
2018-08-03T06:52:58.902Z,9.00
2018-08-03T06:53:59.632Z,12.00
2018-08-03T06:55:00.374Z,11.00
2018-08-03T06:56:01.101Z,13.00
2018-08-03T06:57:01.824Z,12.00
2018-08-03T06:58:02.554Z,11.00
2018-08-03T06:59:03.288Z,12.00
2018-08-03T07:00:04.002Z,11.00
2018-08-03T07:01:04.762Z,12.00
2018-08-03T07:02:05.470Z,12.00
2018-08-03T07:03:06.222Z,13.00
2018-08-03T07:04:06.952Z,12.00
2018-08-03T07:05:07.676Z,14.00
2018-08-03T07:06:08.400Z,13.00
2018-08-03T07:07:09.124Z,11.00
2018-08-03T07:08:09.853Z,14.00
2018-08-03T07:09:10.581Z,13.00
2018-08-03T07:10:11.305Z,11.00
2018-08-03T07:11:12.041Z,11.00
2018-08-03T07:12:12.765Z,13.00
2018-08-03T07:13:13.504Z,10.00
2018-08-03T07:14:14.232Z,12.00
2018-08-03T07:15:14.957Z,11.00
2018-08-03T07:16:15.681Z,11.00
2018-08-03T07:17:16.425Z,11.00
2018-08-03T07:18:17.145Z,12.00
2018-08-03T07:19:17.869Z,13.00
2018-08-03T07:20:18.717Z,13.00
2018-08-03T07:21:19.318Z,12.00
2018-08-03T07:22:20.046Z,12.00
2018-08-03T07:23:20.785Z,15.00
2018-08-03T07:24:21.510Z,12.00
2018-08-03T07:25:22.239Z,13.00
2018-08-03T07:26:22.965Z,13.00
2018-08-03T07:27:23.692Z,12.00
2018-08-03T07:28:24.416Z,10.00
2018-08-03T07:29:25.155Z,12.00
2018-08-03T07:30:25.878Z,9.00
2018-08-03T07:31:26.605Z,10.00
2018-08-03T07:32:27.329Z,11.00
2018-08-03T07:33:28.056Z,12.00
2018-08-03T07:34:28.783Z,13.00
2018-08-03T07:35:29.508Z,13.00
2018-08-03T07:36:30.237Z,11.00
2018-08-03T07:37:30.959Z,11.00
2018-08-03T07:38:31.700Z,11.00
2018-08-03T07:39:32.430Z,11.00
2018-08-03T07:40:33.156Z,12.00
2018-08-03T07:41:33.895Z,11.00
2018-08-03T07:42:34.618Z,9.00
2018-08-03T07:43:35.402Z,11.00
2018-08-03T07:44:36.089Z,10.00
2018-08-03T07:45:36.797Z,10.00
2018-08-03T07:46:37.525Z,12.00
2018-08-03T07:47:38.252Z,10.00
2018-08-03T07:48:38.979Z,11.00
2018-08-03T07:49:39.721Z,10.00
2018-08-03T07:50:40.455Z,11.00
2018-08-03T07:51:41.176Z,10.00
2018-08-03T07:52:41.901Z,11.00
2018-08-03T07:53:42.627Z,9.00
2018-08-03T07:54:43.369Z,13.00
2018-08-03T07:55:44.097Z,12.00
2018-08-03T07:56:44.823Z,12.00
2018-08-03T07:57:45.551Z,12.00
2018-08-03T07:58:46.277Z,10.00
2018-08-03T07:59:47.020Z,12.00
2018-08-03T08:00:47.746Z,12.00
2018-08-03T08:01:48.485Z,12.00
2018-08-03T08:02:49.226Z,13.00
2018-08-03T08:03:49.953Z,10.00
2018-08-03T08:04:50.693Z,12.00
2018-08-03T08:05:51.421Z,10.00
2018-08-03T08:06:52.148Z,10.00
2018-08-03T08:07:52.877Z,9.00
2018-08-03T08:08:53.611Z,9.00
2018-08-03T08:09:54.340Z,8.00
2018-08-03T08:10:55.074Z,10.00
2018-08-03T08:11:55.828Z,12.00
2018-08-03T08:12:56.548Z,9.00
2018-08-03T08:13:57.273Z,8.00
2018-08-03T08:14:57.999Z,10.00
2018-08-03T08:15:58.738Z,9.00
2018-08-03T08:16:59.515Z,10.00
2018-08-03T08:18:00.205Z,9.00
2018-08-03T08:19:00.932Z,10.00
2018-08-03T08:20:01.663Z,10.00
2018-08-03T08:21:02.399Z,11.00
2018-08-03T08:22:03.125Z,11.00
2018-08-03T08:23:03.851Z,10.00
2018-08-03T08:24:04.579Z,11.00
2018-08-03T08:25:05.321Z,10.00
2018-08-03T08:26:06.112Z,10.00
2018-08-03T08:27:06.792Z,11.00
2018-08-03T08:28:07.518Z,12.00
2018-08-03T08:29:08.259Z,10.00
2018-08-03T08:30:08.987Z,10.00
2018-08-03T08:31:09.717Z,11.00
2018-08-03T08:32:10.444Z,10.00
2018-08-03T08:33:11.174Z,10.00
2018-08-03T08:34:11.915Z,10.00
2018-08-03T08:35:12.657Z,9.00
2018-08-03T08:36:13.388Z,10.00
2018-08-03T08:37:14.111Z,9.00
2018-08-03T08:38:14.839Z,8.00
2018-08-03T08:39:15.566Z,9.00
2018-08-03T08:40:16.296Z,9.00
2018-08-03T08:41:17.025Z,10.00
2018-08-03T08:42:17.764Z,9.00
2018-08-03T08:43:18.495Z,10.00
2018-08-03T08:44:19.234Z,9.00
2018-08-03T08:45:19.961Z,8.00
2018-08-03T08:46:20.690Z,10.00
2018-08-03T08:47:21.418Z,10.00
2018-08-03T08:48:22.165Z,12.00
2018-08-03T08:49:22.903Z,10.00
2018-08-03T08:50:23.628Z,8.00
2018-08-03T08:51:24.356Z,8.00
2018-08-03T08:52:25.087Z,10.00
2018-08-03T08:53:25.816Z,9.00
2018-08-03T08:54:26.546Z,11.00
2018-08-03T08:55:27.271Z,9.00
2018-08-03T08:56:28.000Z,9.00
2018-08-03T08:57:28.729Z,10.00
2018-08-03T08:58:29.461Z,9.00
2018-08-03T08:59:30.227Z,9.00
2018-08-03T09:00:30.919Z,10.00
2018-08-03T09:01:31.661Z,9.00
2018-08-03T09:02:32.407Z,10.00
2018-08-03T09:03:33.139Z,11.00
2018-08-03T09:04:33.876Z,9.00
2018-08-03T09:05:34.607Z,11.00
2018-08-03T09:06:35.339Z,9.00
2018-08-03T09:07:36.129Z,11.00
2018-08-03T09:08:36.823Z,9.00
2018-08-03T09:09:37.558Z,9.00
2018-08-03T09:10:38.294Z,8.00
2018-08-03T09:11:39.029Z,7.00
2018-08-03T09:12:39.789Z,11.00
2018-08-03T09:13:40.497Z,9.00
2018-08-03T09:14:41.234Z,10.00
2018-08-03T09:15:41.974Z,9.00
2018-08-03T09:16:42.707Z,9.00
2018-08-03T09:17:43.444Z,9.00
2018-08-03T09:18:44.186Z,9.00
2018-08-03T09:19:44.926Z,9.00
2018-08-03T09:20:45.665Z,10.00
2018-08-03T09:21:46.406Z,10.00
2018-08-03T09:22:47.144Z,9.00
2018-08-03T09:23:47.888Z,8.00
2018-08-03T09:24:48.646Z,8.00
2018-08-03T09:26:34.050Z,9.00
2018-08-03T09:27:34.796Z,9.00
2018-08-03T09:28:35.537Z,7.00
2018-08-03T09:29:36.281Z,8.00
2018-08-03T09:30:37.023Z,8.00
2018-08-03T09:31:37.766Z,9.00
2018-08-03T09:32:38.510Z,10.00
2018-08-03T09:33:39.255Z,7.00
2018-08-03T09:34:40.000Z,9.00
2018-08-03T09:35:40.743Z,10.00
2018-08-03T09:36:41.487Z,8.00
2018-08-03T09:37:42.231Z,8.00
2018-08-03T09:38:42.977Z,8.00
2018-08-03T09:39:43.721Z,8.00
2018-08-03T09:40:44.465Z,8.00
2018-08-03T09:41:45.212Z,8.00
2018-08-03T09:42:45.986Z,9.00
2018-08-03T09:43:46.696Z,8.00
2018-08-03T09:44:47.438Z,8.00
2018-08-03T09:45:48.192Z,7.00
2018-08-03T09:46:48.933Z,6.00
2018-08-03T09:47:49.674Z,7.00
2018-08-03T09:48:50.415Z,7.00
2018-08-03T09:49:51.158Z,6.00
2018-08-03T09:50:51.900Z,7.00
2018-08-03T09:51:52.642Z,7.00
2018-08-03T09:52:53.380Z,6.00
2018-08-03T09:53:54.132Z,8.00
2018-08-03T09:54:54.870Z,7.00
2018-08-03T09:55:55.610Z,7.00
2018-08-03T09:56:56.347Z,7.00
2018-08-03T09:57:57.088Z,7.00
2018-08-03T09:58:57.825Z,7.00
2018-08-03T09:59:58.576Z,6.00
2018-08-03T10:00:59.315Z,6.00
2018-08-03T10:02:00.057Z,7.00
2018-08-03T10:03:00.795Z,7.00
2018-08-03T10:04:01.532Z,6.00
2018-08-03T10:05:02.271Z,7.00
2018-08-03T10:06:03.012Z,7.00
2018-08-03T10:07:03.749Z,6.00
2018-08-03T10:08:04.490Z,6.00
2018-08-03T10:09:05.228Z,7.00
2018-08-03T10:10:05.969Z,6.00
2018-08-03T10:11:06.708Z,6.00
2018-08-03T10:12:07.446Z,6.00
2018-08-03T10:13:08.186Z,6.00
2018-08-03T10:14:08.927Z,8.00
2018-08-03T10:15:09.678Z,6.00
2018-08-03T10:16:10.415Z,6.00
2018-08-03T10:17:11.172Z,6.00
2018-08-03T10:18:11.909Z,5.00
2018-08-03T10:19:12.649Z,8.00
2018-08-03T10:20:13.389Z,9.00
2018-08-03T10:21:14.141Z,7.00
2018-08-03T10:23:01.887Z,6.00
2018-08-03T10:24:02.638Z,6.00
2018-08-03T10:25:03.392Z,6.00
2018-08-03T10:26:04.144Z,7.00
2018-08-03T10:27:04.883Z,5.00
2018-08-03T10:28:05.621Z,5.00
2018-08-03T10:29:06.395Z,5.00
2018-08-03T10:30:07.120Z,7.00
2018-08-03T10:31:07.866Z,6.00
2018-08-03T10:32:08.638Z,7.00
2018-08-03T10:33:09.409Z,5.00
2018-08-03T10:34:10.184Z,7.00
2018-08-03T10:35:10.985Z,7.00
2018-08-03T10:36:11.709Z,5.00
2018-08-03T10:37:12.452Z,6.00
2018-08-03T10:38:13.211Z,6.00
2018-08-03T10:39:13.960Z,5.00
2018-08-03T10:40:14.699Z,6.00
2018-08-03T10:41:15.439Z,5.00
2018-08-03T10:42:16.180Z,7.00
2018-08-03T10:43:17.002Z,6.00
2018-08-03T10:44:17.667Z,5.00
2018-08-03T10:45:18.420Z,6.00
2018-08-03T10:46:19.157Z,6.00
2018-08-03T10:47:19.905Z,6.00
2018-08-03T10:48:20.643Z,6.00
2018-08-03T10:49:21.381Z,5.00
2018-08-03T10:50:22.131Z,6.00
2018-08-03T10:51:22.945Z,4.00
2018-08-03T10:52:23.642Z,6.00
2018-08-03T10:53:24.390Z,5.00
2018-08-03T10:54:25.150Z,5.00
2018-08-03T10:55:25.970Z,4.00
2018-08-03T10:56:26.655Z,6.00
2018-08-03T10:57:27.393Z,5.00
2018-08-03T10:58:28.162Z,5.00
2018-08-03T10:59:28.913Z,6.00
2018-08-03T11:00:29.661Z,6.00
2018-08-03T11:01:30.478Z,5.00
2018-08-03T11:02:31.139Z,5.00
2018-08-03T11:03:31.873Z,6.00
2018-08-03T11:04:32.613Z,6.00
2018-08-03T11:05:33.363Z,5.00
2018-08-03T11:06:34.099Z,7.00
2018-08-03T11:07:34.835Z,5.00
2018-08-03T11:08:35.573Z,5.00
2018-08-03T11:09:36.310Z,5.00
2018-08-03T11:10:37.048Z,7.00
2018-08-03T11:11:37.796Z,6.00
2018-08-03T11:12:38.531Z,6.00
2018-08-03T11:13:39.284Z,6.00
2018-08-03T11:14:40.005Z,8.00
2018-08-03T11:15:40.733Z,6.00
2018-08-03T11:16:41.478Z,8.00
2018-08-03T11:17:42.213Z,4.00
2018-08-03T11:18:42.946Z,6.00
2018-08-03T11:19:43.692Z,5.00
2018-08-03T11:20:44.425Z,7.00
2018-08-03T11:21:45.159Z,10.00
2018-08-03T11:22:45.892Z,5.00
2018-08-03T11:25:03.755Z,6.00
2018-08-03T11:26:04.490Z,5.00
2018-08-03T11:27:05.235Z,5.00
2018-08-03T11:28:05.972Z,6.00
2018-08-03T11:29:06.724Z,6.00
2018-08-03T11:30:07.458Z,5.00
2018-08-03T11:31:08.193Z,5.00
2018-08-03T11:32:08.932Z,5.00
2018-08-03T11:33:09.675Z,6.00
2018-08-03T11:34:10.409Z,6.00
2018-08-03T11:35:11.179Z,7.00
2018-08-03T11:36:11.879Z,7.00
2018-08-03T11:37:12.632Z,6.00
2018-08-03T11:38:13.384Z,6.00
2018-08-03T11:39:14.134Z,7.00
2018-08-03T11:40:14.868Z,6.00
2018-08-03T11:41:15.605Z,7.00
2018-08-03T11:42:16.339Z,8.00
2018-08-03T11:43:17.084Z,6.00
2018-08-03T11:44:17.828Z,6.00
2018-08-03T11:45:18.567Z,6.00
2018-08-03T11:46:19.303Z,6.00
2018-08-03T11:47:20.043Z,7.00
2018-08-03T11:48:20.795Z,6.00
2018-08-03T11:49:21.517Z,6.00
2018-08-03T11:50:22.248Z,6.00
2018-08-03T11:51:22.984Z,6.00
2018-08-03T11:52:23.722Z,6.00
2018-08-03T11:53:24.457Z,5.00
2018-08-03T11:54:25.195Z,6.00
2018-08-03T11:55:25.929Z,6.00
2018-08-03T11:56:26.665Z,7.00
2018-08-03T11:57:27.419Z,7.00
2018-08-03T11:58:28.155Z,5.00
2018-08-03T11:59:28.894Z,6.00
2018-08-03T12:00:29.637Z,7.00
2018-08-03T12:01:30.369Z,6.00
2018-08-03T12:02:31.115Z,6.00
2018-08-03T12:03:31.864Z,7.00
2018-08-03T12:04:32.601Z,6.00
2018-08-03T12:05:33.341Z,7.00
2018-08-03T12:06:34.168Z,7.00
2018-08-03T12:07:34.814Z,6.00
2018-08-03T12:08:35.566Z,7.00
2018-08-03T12:09:36.303Z,6.00
2018-08-03T12:10:37.036Z,6.00
2018-08-03T12:11:37.771Z,6.00
2018-08-03T12:12:38.615Z,8.00
2018-08-03T12:13:39.256Z,6.00
2018-08-03T12:14:39.994Z,6.00
2018-08-03T12:15:40.731Z,6.00
2018-08-03T12:16:41.465Z,6.00
2018-08-03T12:17:42.199Z,7.00
2018-08-03T12:18:42.930Z,7.00
2018-08-03T12:19:43.676Z,7.00
2018-08-03T12:20:44.419Z,6.00
2018-08-03T12:21:45.140Z,8.00
2018-08-03T12:22:45.878Z,6.00
2018-08-03T12:23:46.621Z,6.00
2018-08-03T12:24:47.359Z,6.00
2018-08-03T12:25:48.096Z,7.00
2018-08-03T12:26:48.840Z,7.00
2018-08-03T12:27:49.574Z,6.00
2018-08-03T12:28:50.314Z,6.00
2018-08-03T12:29:51.051Z,7.00
2018-08-03T12:30:51.793Z,6.00
2018-08-03T12:31:52.542Z,6.00
2018-08-03T12:32:53.274Z,6.00
2018-08-03T12:33:54.009Z,6.00
2018-08-03T12:34:54.758Z,6.00
2018-08-03T12:35:55.493Z,7.00
2018-08-03T12:36:56.231Z,6.00
2018-08-03T12:37:56.968Z,7.00
2018-08-03T12:38:57.712Z,7.00
2018-08-03T12:39:58.449Z,7.00
2018-08-03T12:40:59.182Z,5.00
2018-08-03T12:41:59.932Z,8.00
2018-08-03T12:43:00.670Z,5.00
2018-08-03T12:44:01.418Z,7.00
2018-08-03T12:45:02.153Z,7.00
2018-08-03T12:46:02.959Z,7.00
2018-08-03T12:47:03.635Z,6.00
2018-08-03T12:48:04.371Z,6.00
2018-08-03T12:49:05.103Z,7.00
2018-08-03T12:50:05.840Z,6.00
2018-08-03T12:51:06.583Z,8.00
2018-08-03T12:52:07.315Z,7.00
2018-08-03T12:53:08.050Z,6.00
2018-08-03T12:54:08.792Z,6.00
2018-08-03T12:55:09.530Z,6.00
2018-08-03T12:56:10.262Z,6.00
2018-08-03T12:57:10.996Z,6.00
2018-08-03T12:58:11.734Z,8.00
2018-08-03T12:59:12.470Z,6.00
2018-08-03T13:00:13.201Z,7.00
2018-08-03T13:01:13.941Z,6.00
2018-08-03T13:02:14.678Z,6.00
2018-08-03T13:03:15.428Z,7.00
2018-08-03T13:04:16.184Z,7.00
2018-08-03T13:05:16.900Z,6.00
2018-08-03T13:06:17.631Z,7.00
2018-08-03T13:07:18.530Z,6.00
2018-08-03T13:08:19.237Z,6.00
2018-08-03T13:09:19.854Z,5.00
2018-08-03T13:10:20.591Z,6.00
2018-08-03T13:11:21.329Z,6.00
2018-08-03T13:12:22.081Z,6.00
2018-08-03T13:13:22.829Z,8.00
2018-08-03T13:14:23.571Z,6.00
2018-08-03T13:15:24.309Z,6.00
2018-08-03T13:16:25.044Z,5.00
2018-08-03T13:17:25.794Z,7.00
2018-08-03T13:18:26.531Z,6.00
2018-08-03T13:19:27.268Z,5.00
2018-08-03T13:20:28.017Z,6.00
2018-08-03T13:21:28.752Z,6.00
2018-08-03T13:22:29.485Z,7.00
2018-08-03T13:23:30.217Z,7.00
2018-08-03T13:24:30.962Z,7.00